createdAt,value
2019-06-01T00:01:38.246Z,98.80
2019-06-01T00:04:11.416Z,99.40
2019-06-01T00:06:44.881Z,99.40
2019-06-01T00:09:17.552Z,99.80
2019-06-01T00:11:50.313Z,99.80
2019-06-01T00:14:22.878Z,99.90
2019-06-01T00:16:55.422Z,99.90
2019-06-01T00:19:27.947Z,99.90
2019-06-01T00:22:00.432Z,99.90
2019-06-01T00:24:33.189Z,99.90
2019-06-01T00:27:06.135Z,99.90
2019-06-01T00:29:38.823Z,99.90
2019-06-01T00:32:11.599Z,99.90
2019-06-01T00:34:44.206Z,99.90
2019-06-01T00:37:16.755Z,99.90
2019-06-01T00:39:51.959Z,99.90
2019-06-01T00:42:25.073Z,99.90
2019-06-01T00:44:57.649Z,99.90
2019-06-01T00:47:30.469Z,99.90
2019-06-01T00:50:03.118Z,99.90
2019-06-01T00:52:37.043Z,99.90
2019-06-01T00:55:36.847Z,99.90
2019-06-01T00:58:09.579Z,99.90
2019-06-01T01:00:44.196Z,99.90
2019-06-01T01:03:17.665Z,99.90
2019-06-01T01:05:50.690Z,99.90
2019-06-01T01:08:23.712Z,99.80
2019-06-01T01:10:56.165Z,99.90
2019-06-01T01:13:28.981Z,99.90
2019-06-01T01:16:01.514Z,99.90
2019-06-01T01:18:33.970Z,99.90
2019-06-01T01:21:06.683Z,99.90
2019-06-01T01:23:39.249Z,99.90
2019-06-01T01:26:11.816Z,99.90
2019-06-01T01:28:44.431Z,99.90
2019-06-01T01:31:16.794Z,99.90
2019-06-01T01:33:49.440Z,99.90
2019-06-01T01:36:22.226Z,99.90
2019-06-01T01:38:54.688Z,99.90
2019-06-01T01:41:27.652Z,99.90
2019-06-01T01:44:00.259Z,99.90
2019-06-01T01:46:33.796Z,99.90
2019-06-01T01:49:06.588Z,99.90
2019-06-01T01:51:39.010Z,99.90
2019-06-01T01:54:11.544Z,99.90
2019-06-01T01:56:43.787Z,99.90
2019-06-01T01:59:16.190Z,99.90
2019-06-01T02:01:48.956Z,99.90
2019-06-01T02:04:21.666Z,99.90
2019-06-01T02:06:54.432Z,99.90
2019-06-01T02:09:27.338Z,99.90
2019-06-01T02:11:59.720Z,99.90
2019-06-01T02:14:32.161Z,99.90
2019-06-01T02:17:05.359Z,99.90
2019-06-01T02:19:38.058Z,99.90
2019-06-01T02:22:10.797Z,99.90
2019-06-01T02:24:43.707Z,99.90
2019-06-01T02:27:16.683Z,99.90
2019-06-01T02:29:49.054Z,99.90
2019-06-01T02:32:21.596Z,99.90
2019-06-01T02:34:55.964Z,99.90
2019-06-01T02:37:28.690Z,99.90
2019-06-01T02:40:01.066Z,99.90
2019-06-01T02:42:35.619Z,99.90
2019-06-01T02:45:12.399Z,99.90
2019-06-01T02:47:45.107Z,99.90
2019-06-01T02:50:19.251Z,99.90
2019-06-01T02:52:52.003Z,99.90
2019-06-01T02:55:24.790Z,99.90
2019-06-01T02:57:58.051Z,99.90
2019-06-01T03:01:32.144Z,99.90
2019-06-01T03:04:08.470Z,99.90
2019-06-01T03:06:45.830Z,99.90
2019-06-01T03:09:21.536Z,99.90
2019-06-01T03:12:00.825Z,99.90
2019-06-01T03:14:37.947Z,99.90
2019-06-01T03:17:14.060Z,99.90
2019-06-01T03:19:50.073Z,99.90
2019-06-01T03:22:24.154Z,99.90
2019-06-01T03:25:02.047Z,99.90
2019-06-01T03:27:38.832Z,99.90
2019-06-01T03:30:15.575Z,99.90
2019-06-01T03:32:47.482Z,99.90
2019-06-01T03:35:20.274Z,99.90
2019-06-01T03:37:52.885Z,99.90
2019-06-01T03:40:25.817Z,99.90
2019-06-01T03:42:58.669Z,99.90
2019-06-01T03:45:31.304Z,99.90
2019-06-01T03:48:04.631Z,99.90
2019-06-01T03:50:37.341Z,99.90
2019-06-01T03:53:10.004Z,99.90
2019-06-01T03:55:42.644Z,99.90
2019-06-01T03:58:15.017Z,99.90
2019-06-01T04:00:47.829Z,99.90
2019-06-01T04:03:20.481Z,99.90
2019-06-01T04:05:52.880Z,99.90
2019-06-01T04:08:25.355Z,99.90
2019-06-01T04:10:57.719Z,99.90
2019-06-01T04:13:30.232Z,99.90
2019-06-01T04:16:03.713Z,99.90
2019-06-01T04:18:46.167Z,99.90
2019-06-01T04:21:18.708Z,99.90
2019-06-01T04:23:51.318Z,99.90
2019-06-01T04:26:23.732Z,99.90
2019-06-01T04:28:56.151Z,99.90
2019-06-01T04:31:28.754Z,99.90
2019-06-01T04:34:02.431Z,99.90
2019-06-01T04:36:35.516Z,99.50
2019-06-01T04:39:09.769Z,99.00
2019-06-01T04:41:42.378Z,98.60
2019-06-01T04:44:18.195Z,98.20
2019-06-01T04:46:49.273Z,98.30
2019-06-01T04:49:21.931Z,97.40
2019-06-01T04:51:54.763Z,97.40
2019-06-01T04:54:27.176Z,96.90
2019-06-01T04:56:59.990Z,96.60
2019-06-01T04:59:32.478Z,95.80
2019-06-01T05:02:07.248Z,95.60
2019-06-01T05:04:43.407Z,95.30
2019-06-01T05:07:15.407Z,95.10
2019-06-01T05:09:48.007Z,95.30
2019-06-01T05:12:20.893Z,95.40
2019-06-01T05:14:53.334Z,95.30
2019-06-01T05:17:26.172Z,95.30
2019-06-01T05:20:00.124Z,94.70
2019-06-01T05:22:32.828Z,95.30
2019-06-01T05:25:06.854Z,94.90
2019-06-01T05:27:39.666Z,94.40
2019-06-01T05:30:13.881Z,93.80
2019-06-01T05:32:48.679Z,93.40
2019-06-01T05:35:21.573Z,93.20
2019-06-01T05:37:54.212Z,92.90
2019-06-01T05:40:27.019Z,92.70
2019-06-01T05:42:59.572Z,92.50
2019-06-01T05:45:32.464Z,92.10
2019-06-01T05:48:05.268Z,92.90
2019-06-01T05:50:37.863Z,91.90
2019-06-01T05:53:10.660Z,91.60
2019-06-01T05:55:43.409Z,91.10
2019-06-01T05:58:17.257Z,90.70
2019-06-01T06:00:49.825Z,90.50
2019-06-01T06:03:39.272Z,90.50
2019-06-01T06:05:58.256Z,90.20
2019-06-01T06:08:30.844Z,89.50
2019-06-01T06:11:03.831Z,88.50
2019-06-01T06:13:37.168Z,88.20
2019-06-01T06:16:11.356Z,88.10
2019-06-01T06:18:44.208Z,87.40
2019-06-01T06:21:18.280Z,87.40
2019-06-01T06:23:51.477Z,87.60
2019-06-01T06:26:24.172Z,85.00
2019-06-01T06:28:56.697Z,84.60
2019-06-01T06:31:29.104Z,84.60
2019-06-01T06:34:01.688Z,83.60
2019-06-01T06:36:34.171Z,84.60
2019-06-01T06:39:08.792Z,83.30
2019-06-01T06:41:41.719Z,83.00
2019-06-01T06:44:14.527Z,81.80
2019-06-01T06:46:46.964Z,80.50
2019-06-01T06:49:19.690Z,80.10
2019-06-01T06:51:52.496Z,79.10
2019-06-01T06:54:26.043Z,76.30
2019-06-01T06:56:58.692Z,76.00
2019-06-01T06:59:31.264Z,77.00
2019-06-01T07:02:03.924Z,74.40
2019-06-01T07:04:36.699Z,71.50
2019-06-01T07:07:09.589Z,71.30
2019-06-01T07:09:42.404Z,72.60
2019-06-01T07:12:15.305Z,74.20
2019-06-01T07:14:48.101Z,73.50
2019-06-01T07:17:21.521Z,74.00
2019-06-01T07:19:53.843Z,71.10
2019-06-01T07:22:26.205Z,72.00
2019-06-01T07:24:58.692Z,72.10
2019-06-01T07:27:32.432Z,70.00
2019-06-01T07:30:05.200Z,67.50
2019-06-01T07:32:37.846Z,67.70
2019-06-01T07:35:11.981Z,67.90
2019-06-01T07:37:44.412Z,63.70
2019-06-01T07:40:17.495Z,65.80
2019-06-01T07:42:50.178Z,64.70
2019-06-01T07:45:22.999Z,64.10
2019-06-01T07:47:55.656Z,64.30
2019-06-01T07:50:28.811Z,64.90
2019-06-01T07:53:01.367Z,64.30
2019-06-01T07:55:34.047Z,63.80
2019-06-01T07:58:06.855Z,65.40
2019-06-01T08:00:39.307Z,66.70
2019-06-01T08:03:34.673Z,68.50
2019-06-01T08:06:18.456Z,73.40
2019-06-01T08:08:51.179Z,72.70
2019-06-01T08:11:28.572Z,74.50
2019-06-01T08:13:58.801Z,77.30
2019-06-01T08:16:45.222Z,77.00
2019-06-01T08:19:17.976Z,78.10
2019-06-01T08:22:43.834Z,77.10
2019-06-01T08:25:15.316Z,77.30
2019-06-01T08:28:06.383Z,77.10
2019-06-01T08:30:39.240Z,77.00
2019-06-01T08:33:11.936Z,76.00
2019-06-01T08:36:11.712Z,74.00
2019-06-01T08:38:48.486Z,72.40
2019-06-01T08:41:23.509Z,70.10
2019-06-01T08:44:48.770Z,69.30
2019-06-01T08:47:21.400Z,67.90
2019-06-01T08:50:05.872Z,65.50
2019-06-01T08:52:38.664Z,65.90
2019-06-01T08:55:11.891Z,63.30
2019-06-01T08:57:44.441Z,62.70
2019-06-01T09:00:17.293Z,62.10
2019-06-01T09:02:50.060Z,61.80
2019-06-01T09:05:25.840Z,60.90
2019-06-01T09:07:57.863Z,60.50
2019-06-01T09:10:31.454Z,62.80
2019-06-01T09:13:04.342Z,61.60
2019-06-01T09:15:37.034Z,61.50
2019-06-01T09:18:09.577Z,62.70
2019-06-01T09:20:42.172Z,63.00
2019-06-01T09:23:14.860Z,62.80
2019-06-01T09:25:47.342Z,63.50
2019-06-01T09:28:27.923Z,65.40
2019-06-01T09:31:00.071Z,64.30
2019-06-01T09:33:32.669Z,63.70
2019-06-01T09:36:05.412Z,63.10
2019-06-01T09:38:38.175Z,62.00
2019-06-01T09:41:14.795Z,64.30
2019-06-01T09:43:48.221Z,62.20
2019-06-01T09:46:20.750Z,65.20
2019-06-01T09:48:53.239Z,67.10
2019-06-01T09:51:27.365Z,68.90
2019-06-01T09:53:59.857Z,69.40
2019-06-01T09:56:35.212Z,70.20
2019-06-01T09:59:06.817Z,68.80
2019-06-01T10:01:39.927Z,67.00
2019-06-01T10:04:12.567Z,66.90
2019-06-01T10:06:45.289Z,67.90
2019-06-01T10:09:18.108Z,66.80
2019-06-01T10:11:50.728Z,68.00
2019-06-01T10:14:23.423Z,68.90
2019-06-01T10:16:57.015Z,67.90
2019-06-01T10:19:30.620Z,68.10
2019-06-01T10:22:03.822Z,67.70
2019-06-01T10:24:37.236Z,64.60
2019-06-01T10:27:11.228Z,63.80
2019-06-01T10:29:45.303Z,65.60
2019-06-01T10:32:18.936Z,65.40
2019-06-01T10:34:52.961Z,66.20
2019-06-01T10:37:25.883Z,67.50
2019-06-01T10:39:58.398Z,68.60
2019-06-01T10:42:32.716Z,65.00
2019-06-01T10:45:06.397Z,65.60
2019-06-01T10:47:42.985Z,64.20
2019-06-01T10:50:18.302Z,66.80
2019-06-01T10:52:51.626Z,66.70
2019-06-01T10:55:24.913Z,66.10
2019-06-01T10:57:57.864Z,65.60
2019-06-01T11:00:38.729Z,66.80
2019-06-01T11:03:06.314Z,64.40
2019-06-01T11:05:40.518Z,65.80
2019-06-01T11:08:13.503Z,65.60
2019-06-01T11:10:46.248Z,66.40
2019-06-01T11:13:18.844Z,67.30
2019-06-01T11:15:51.520Z,65.80
2019-06-01T11:18:24.322Z,68.70
2019-06-01T11:20:56.761Z,68.60
2019-06-01T11:23:29.699Z,68.90
2019-06-01T11:26:02.741Z,70.80
2019-06-01T11:28:36.165Z,68.40
2019-06-01T11:31:09.134Z,66.60
2019-06-01T11:33:42.157Z,66.70
2019-06-01T11:36:14.881Z,68.30
2019-06-01T11:38:47.326Z,68.60
2019-06-01T11:41:20.094Z,69.60
2019-06-01T11:43:52.819Z,69.90
2019-06-01T11:46:25.407Z,72.70
2019-06-01T11:48:57.908Z,72.20
2019-06-01T11:51:30.477Z,73.00
2019-06-01T11:54:03.337Z,69.70
2019-06-01T11:56:37.192Z,70.50
2019-06-01T11:59:10.023Z,72.00
2019-06-01T12:01:43.964Z,71.50
2019-06-01T12:04:16.653Z,71.50
2019-06-01T12:06:49.419Z,69.30
2019-06-01T12:09:21.838Z,68.30
2019-06-01T12:11:54.249Z,69.50
2019-06-01T12:14:27.726Z,71.50
2019-06-01T12:17:00.470Z,70.40
2019-06-01T12:19:33.138Z,69.30
2019-06-01T12:22:06.378Z,69.80
2019-06-01T12:24:40.947Z,69.10
2019-06-01T12:27:15.181Z,69.40
2019-06-01T12:29:52.675Z,71.40
2019-06-01T12:32:24.532Z,69.30
2019-06-01T12:34:56.967Z,68.60
2019-06-01T12:37:45.365Z,69.10
2019-06-01T12:40:07.435Z,67.50
2019-06-01T12:42:39.596Z,67.50
2019-06-01T12:45:22.856Z,67.80
2019-06-01T12:47:58.314Z,68.40
2019-06-01T12:50:29.073Z,68.80
2019-06-01T12:53:01.735Z,70.00
2019-06-01T12:55:34.446Z,70.50
2019-06-01T12:58:07.550Z,69.10
2019-06-01T13:00:40.419Z,67.30
2019-06-01T13:03:13.076Z,65.20
2019-06-01T13:05:45.720Z,67.80
2019-06-01T13:08:18.616Z,69.80
2019-06-01T13:10:51.979Z,70.60
2019-06-01T13:13:24.384Z,68.50
2019-06-01T13:15:57.329Z,68.60
2019-06-01T13:18:30.171Z,67.10
2019-06-01T13:21:02.883Z,67.60
2019-06-01T13:23:35.901Z,67.00
2019-06-01T13:26:08.571Z,69.00
2019-06-01T13:28:42.048Z,66.30
2019-06-01T13:31:14.485Z,68.20
2019-06-01T13:33:50.327Z,67.80
2019-06-01T13:36:21.298Z,67.10
2019-06-01T13:38:53.845Z,69.00
2019-06-01T13:41:26.337Z,68.70
2019-06-01T13:43:58.932Z,70.50
2019-06-01T13:46:31.764Z,70.40
2019-06-01T13:49:04.281Z,68.30
2019-06-01T13:51:36.960Z,67.70
2019-06-01T13:54:09.591Z,67.30
2019-06-01T13:56:42.125Z,67.20
2019-06-01T13:59:14.741Z,67.90
2019-06-01T14:01:48.689Z,67.50
2019-06-01T14:04:21.485Z,67.50
2019-06-01T14:06:55.541Z,68.20
2019-06-01T14:09:28.077Z,68.60
2019-06-01T14:12:01.115Z,68.80
2019-06-01T14:14:34.262Z,66.80
2019-06-01T14:17:06.835Z,68.60
2019-06-01T14:19:39.671Z,68.30
2019-06-01T14:22:12.446Z,69.10
2019-06-01T14:24:47.932Z,68.80
2019-06-01T14:27:19.333Z,68.40
2019-06-01T14:29:52.350Z,70.10
2019-06-01T14:32:24.990Z,68.90
2019-06-01T14:34:57.507Z,70.10
2019-06-01T14:37:30.095Z,69.90
2019-06-01T14:40:02.767Z,70.30
2019-06-01T14:42:35.718Z,69.80
2019-06-01T14:45:09.287Z,69.90
2019-06-01T14:47:42.166Z,69.00
2019-06-01T14:50:15.291Z,69.60
2019-06-01T14:52:49.461Z,68.90
2019-06-01T14:55:22.013Z,68.10
2019-06-01T14:57:55.922Z,68.10
2019-06-01T15:00:28.836Z,67.60
2019-06-01T15:03:01.343Z,67.70
2019-06-01T15:05:33.893Z,68.60
2019-06-01T15:08:18.637Z,68.70
2019-06-01T15:10:53.293Z,69.30
2019-06-01T15:13:25.898Z,69.60
2019-06-01T15:15:58.711Z,70.20
2019-06-01T15:18:31.293Z,70.60
2019-06-01T15:21:05.665Z,71.30
2019-06-01T15:23:38.139Z,71.70
2019-06-01T15:26:10.629Z,71.00
2019-06-01T15:28:43.268Z,71.50
2019-06-01T15:31:17.384Z,72.30
2019-06-01T15:33:51.108Z,72.70
2019-06-01T15:36:24.022Z,72.80
2019-06-01T15:38:57.890Z,73.40
2019-06-01T15:41:30.309Z,73.60
2019-06-01T15:44:02.874Z,73.60
2019-06-01T15:46:35.396Z,73.40
2019-06-01T15:49:07.713Z,72.70
2019-06-01T15:51:40.460Z,72.90
2019-06-01T15:54:12.971Z,72.90
2019-06-01T15:56:46.059Z,73.10
2019-06-01T15:59:18.507Z,74.10
2019-06-01T16:01:53.020Z,74.90
2019-06-01T16:04:25.730Z,75.00
2019-06-01T16:06:59.258Z,75.00
2019-06-01T16:09:42.116Z,74.80
2019-06-01T16:12:07.880Z,75.30
2019-06-01T16:14:40.693Z,75.20
2019-06-01T16:17:13.502Z,75.70
2019-06-01T16:19:46.275Z,75.50
2019-06-01T16:22:19.041Z,75.40
2019-06-01T16:24:51.556Z,75.30
2019-06-01T16:27:24.517Z,75.50
2019-06-01T16:30:00.185Z,74.60
2019-06-01T16:32:32.559Z,75.40
2019-06-01T16:35:05.652Z,75.60
2019-06-01T16:37:39.133Z,75.80
2019-06-01T16:40:12.184Z,76.10
2019-06-01T16:42:53.806Z,74.40
2019-06-01T16:45:26.481Z,75.10
2019-06-01T16:47:59.496Z,76.30
2019-06-01T16:50:32.159Z,77.60
2019-06-01T16:53:06.164Z,78.00
2019-06-01T16:55:39.038Z,78.60
2019-06-01T16:58:12.061Z,78.40
2019-06-01T17:00:56.383Z,78.50
2019-06-01T17:03:28.803Z,79.30
2019-06-01T17:06:02.891Z,79.80
2019-06-01T17:08:35.451Z,79.80
2019-06-01T17:11:08.273Z,79.60
2019-06-01T17:13:44.371Z,79.50
2019-06-01T17:16:16.883Z,79.90
2019-06-01T17:18:50.028Z,80.20
2019-06-01T17:21:22.548Z,80.50
2019-06-01T17:23:54.983Z,81.20
2019-06-01T17:26:27.456Z,81.30
2019-06-01T17:29:00.106Z,81.90
2019-06-01T17:31:32.493Z,82.60
2019-06-01T17:34:04.971Z,83.10
2019-06-01T17:36:39.277Z,83.80
2019-06-01T17:39:12.310Z,83.80
2019-06-01T17:41:44.757Z,84.10
2019-06-01T17:44:17.691Z,84.60
2019-06-01T17:46:53.867Z,84.60
2019-06-01T17:49:25.167Z,85.00
2019-06-01T17:51:58.144Z,85.20
2019-06-01T17:54:30.932Z,85.20
2019-06-01T17:57:03.684Z,85.50
2019-06-01T17:59:36.219Z,85.80
2019-06-01T18:02:09.889Z,86.60
2019-06-01T18:04:42.375Z,86.40
2019-06-01T18:07:15.999Z,86.80
2019-06-01T18:09:48.668Z,87.20
2019-06-01T18:12:21.160Z,87.20
2019-06-01T18:14:53.632Z,87.70
2019-06-01T18:17:26.480Z,87.60
2019-06-01T18:20:02.346Z,88.00
2019-06-01T18:22:35.526Z,88.30
2019-06-01T18:25:08.698Z,88.30
2019-06-01T18:27:41.141Z,88.60
2019-06-01T18:30:14.659Z,89.20
2019-06-01T18:32:47.188Z,89.50
2019-06-01T18:35:20.616Z,89.30
2019-06-01T18:37:53.455Z,89.70
2019-06-01T18:40:27.049Z,89.90
2019-06-01T18:43:06.045Z,90.10
2019-06-01T18:45:38.723Z,90.10
2019-06-01T18:48:12.378Z,90.30
2019-06-01T18:50:45.691Z,90.30
2019-06-01T18:53:18.438Z,90.40
2019-06-01T18:55:51.108Z,90.60
2019-06-01T18:58:24.294Z,90.90
2019-06-01T19:00:57.058Z,91.00
2019-06-01T19:03:29.636Z,91.10
2019-06-01T19:06:02.207Z,91.40
2019-06-01T19:08:34.752Z,91.70
2019-06-01T19:11:08.362Z,91.80
2019-06-01T19:13:41.075Z,92.00
2019-06-01T19:16:14.299Z,92.20
2019-06-01T19:18:47.007Z,92.10
2019-06-01T19:21:20.460Z,92.10
2019-06-01T19:23:53.488Z,92.40
2019-06-01T19:26:26.376Z,92.60
2019-06-01T19:28:59.380Z,92.80
2019-06-01T19:31:32.478Z,93.00
2019-06-01T19:34:04.948Z,92.90
2019-06-01T19:36:38.756Z,93.10
2019-06-01T19:39:13.260Z,93.30
2019-06-01T19:41:46.517Z,93.40
2019-06-01T19:44:19.056Z,93.60
2019-06-01T19:46:51.454Z,94.20
2019-06-01T19:49:23.928Z,94.30
2019-06-01T19:51:56.809Z,94.30
2019-06-01T19:54:29.600Z,94.50
2019-06-01T19:57:02.270Z,94.60
2019-06-01T19:59:34.812Z,94.70
2019-06-01T20:02:23.143Z,94.80
2019-06-01T20:04:42.100Z,94.80
2019-06-01T20:07:15.247Z,95.00
2019-06-01T20:09:47.739Z,95.30
2019-06-01T20:12:20.681Z,95.50
2019-06-01T20:14:53.405Z,95.50
2019-06-01T20:17:27.359Z,95.40
2019-06-01T20:20:00.813Z,95.20
2019-06-01T20:22:33.293Z,95.20
2019-06-01T20:25:06.470Z,95.00
2019-06-01T20:27:38.934Z,95.10
2019-06-01T20:30:15.673Z,94.80
2019-06-01T20:32:48.424Z,94.60
2019-06-01T20:35:22.100Z,94.40
2019-06-01T20:37:55.128Z,94.10
2019-06-01T20:40:28.027Z,94.30
2019-06-01T20:43:00.512Z,94.40
2019-06-01T20:45:32.877Z,94.40
2019-06-01T20:48:05.634Z,93.60
2019-06-01T20:50:38.203Z,93.40
2019-06-01T20:53:10.903Z,92.50
2019-06-01T20:55:43.835Z,91.80
2019-06-01T20:58:19.494Z,91.70
2019-06-01T21:00:51.595Z,91.90
2019-06-01T21:03:24.438Z,91.40
2019-06-01T21:05:57.118Z,91.10
2019-06-01T21:08:30.386Z,91.50
2019-06-01T21:11:02.930Z,91.50
2019-06-01T21:13:35.381Z,91.40
2019-06-01T21:16:08.178Z,91.00
2019-06-01T21:18:41.096Z,91.10
2019-06-01T21:21:14.284Z,91.60
2019-06-01T21:23:46.887Z,92.20
2019-06-01T21:26:21.110Z,91.80
2019-06-01T21:28:54.142Z,91.90
2019-06-01T21:31:26.732Z,92.00
2019-06-01T21:33:59.334Z,92.30
2019-06-01T21:36:32.028Z,92.50
2019-06-01T21:39:05.885Z,93.20
2019-06-01T21:41:38.354Z,93.70
2019-06-01T21:44:10.835Z,93.60
2019-06-01T21:46:43.329Z,93.10
2019-06-01T21:49:17.570Z,93.20
2019-06-01T21:51:52.913Z,93.20
2019-06-01T21:54:24.713Z,93.10
2019-06-01T21:56:57.412Z,93.20
2019-06-01T21:59:30.147Z,93.50
2019-06-01T22:02:02.885Z,93.70
2019-06-01T22:04:35.620Z,94.30
2019-06-01T22:07:08.639Z,94.40
2019-06-01T22:09:41.303Z,94.70
2019-06-01T22:12:13.871Z,94.50
2019-06-01T22:14:46.193Z,94.30
2019-06-01T22:17:20.340Z,94.50
2019-06-01T22:19:53.697Z,94.90
2019-06-01T22:22:28.051Z,94.90
2019-06-01T22:25:00.951Z,94.90
2019-06-01T22:27:33.440Z,95.10
2019-06-01T22:30:06.966Z,95.20
2019-06-01T22:32:39.824Z,95.20
2019-06-01T22:35:12.477Z,95.30
2019-06-01T22:37:45.034Z,95.50
2019-06-01T22:40:19.244Z,95.60
2019-06-01T22:42:51.993Z,95.90
2019-06-01T22:45:24.913Z,96.10
2019-06-01T22:47:57.420Z,96.30
2019-06-01T22:50:30.096Z,96.10
2019-06-01T22:53:02.933Z,95.90
2019-06-01T22:55:35.647Z,96.00
2019-06-01T22:58:08.604Z,96.20
2019-06-01T23:00:41.019Z,96.20
2019-06-01T23:03:13.703Z,96.20
2019-06-01T23:05:46.316Z,96.70
2019-06-01T23:08:18.650Z,96.80
2019-06-01T23:10:51.708Z,96.60
2019-06-01T23:13:24.323Z,96.40
2019-06-01T23:15:56.910Z,96.70
2019-06-01T23:18:29.889Z,96.60
2019-06-01T23:21:02.814Z,96.80
2019-06-01T23:23:35.237Z,96.70
2019-06-01T23:26:07.796Z,97.20
2019-06-01T23:28:40.322Z,97.80
2019-06-01T23:31:13.593Z,98.00
2019-06-01T23:33:46.537Z,98.50
2019-06-01T23:36:19.215Z,99.20
2019-06-01T23:38:52.190Z,99.10
2019-06-01T23:41:24.936Z,99.90
2019-06-01T23:44:11.167Z,99.90
2019-06-01T23:46:33.466Z,99.50
2019-06-01T23:49:06.141Z,99.20
2019-06-01T23:51:38.722Z,99.40
2019-06-01T23:54:11.779Z,99.20
2019-06-01T23:56:44.237Z,99.40
2019-06-01T23:59:17.153Z,99.70
